sensor_id;sensor_type;location;lat;lon;timestamp;pressure;altitude;pressure_sealevel;temperature;humidity
54870;BME280;40756;-37.950;145.008;2022-10-17T00:00:09;102185.65;;;13.99;38.16
54870;BME280;40756;-37.950;145.008;2022-10-17T00:02:39;102182.54;;;14.42;37.13
54870;BME280;40756;-37.950;145.008;2022-10-17T00:05:09;102180.98;;;14.58;36.97
54870;BME280;40756;-37.950;145.008;2022-10-17T00:07:39;102183.86;;;15.13;37.25
54870;BME280;40756;-37.950;145.008;2022-10-17T00:10:08;102183.24;;;14.44;37.16
54870;BME280;40756;-37.950;145.008;2022-10-17T00:12:38;102178.63;;;14.81;37.11
54870;BME280;40756;-37.950;145.008;2022-10-17T00:15:10;102170.05;;;15.29;36.11
54870;BME280;40756;-37.950;145.008;2022-10-17T00:17:39;102159.59;;;14.85;35.98
54870;BME280;40756;-37.950;145.008;2022-10-17T00:20:10;102153.35;;;14.87;36.39
54870;BME280;40756;-37.950;145.008;2022-10-17T00:22:41;102150.32;;;15.61;36.33
54870;BME280;40756;-37.950;145.008;2022-10-17T00:25:11;102153.24;;;15.28;36.83
54870;BME280;40756;-37.950;145.008;2022-10-17T00:27:42;102146.52;;;15.54;35.41
54870;BME280;40756;-37.950;145.008;2022-10-17T00:30:13;102149.68;;;15.30;35.75
54870;BME280;40756;-37.950;145.008;2022-10-17T00:32:43;102146.67;;;15.86;35.20
54870;BME280;40756;-37.950;145.008;2022-10-17T00:35:13;102151.67;;;15.16;35.70
54870;BME280;40756;-37.950;145.008;2022-10-17T00:37:42;102151.28;;;14.55;36.09
54870;BME280;40756;-37.950;145.008;2022-10-17T00:40:12;102149.44;;;14.74;35.92
54870;BME280;40756;-37.950;145.008;2022-10-17T00:42:41;102153.16;;;14.94;36.81
54870;BME280;40756;-37.950;145.008;2022-10-17T00:45:20;102150.39;;;14.21;37.01
54870;BME280;40756;-37.950;145.008;2022-10-17T00:47:54;102140.94;;;14.10;37.39
54870;BME280;40756;-37.950;145.008;2022-10-17T00:50:32;102139.21;;;14.86;37.15
54870;BME280;40756;-37.950;145.008;2022-10-17T00:53:06;102140.60;;;14.84;37.89
54870;BME280;40756;-37.950;145.008;2022-10-17T00:55:43;102148.17;;;15.36;37.28
54870;BME280;40756;-37.950;145.008;2022-10-17T00:58:14;102142.48;;;15.12;37.52
54870;BME280;40756;-37.950;145.008;2022-10-17T01:00:44;102134.80;;;15.42;37.33
54870;BME280;40756;-37.950;145.008;2022-10-17T01:03:14;102134.97;;;15.22;38.57
54870;BME280;40756;-37.950;145.008;2022-10-17T01:05:44;102133.71;;;15.15;37.58
54870;BME280;40756;-37.950;145.008;2022-10-17T01:08:14;102126.91;;;15.64;36.69
54870;BME280;40756;-37.950;145.008;2022-10-17T01:10:52;102127.69;;;16.05;36.74
54870;BME280;40756;-37.950;145.008;2022-10-17T01:13:27;102127.05;;;16.49;36.38
54870;BME280;40756;-37.950;145.008;2022-10-17T01:16:07;102119.53;;;16.99;35.91
54870;BME280;40756;-37.950;145.008;2022-10-17T01:18:50;102126.45;;;16.09;35.25
54870;BME280;40756;-37.950;145.008;2022-10-17T01:21:33;102126.63;;;16.62;35.35
54870;BME280;40756;-37.950;145.008;2022-10-17T01:24:27;102122.57;;;16.02;35.29
54870;BME280;40756;-37.950;145.008;2022-10-17T01:27:21;102124.36;;;16.11;35.67
54870;BME280;40756;-37.950;145.008;2022-10-17T01:30:11;102130.25;;;15.86;35.63
54870;BME280;40756;-37.950;145.008;2022-10-17T01:32:48;102120.50;;;15.90;35.73
54870;BME280;40756;-37.950;145.008;2022-10-17T01:35:26;102121.70;;;15.54;37.09
54870;BME280;40756;-37.950;145.008;2022-10-17T01:38:07;102116.48;;;16.18;36.51
54870;BME280;40756;-37.950;145.008;2022-10-17T01:40:41;102112.20;;;16.22;36.29
54870;BME280;40756;-37.950;145.008;2022-10-17T01:43:17;102110.10;;;16.66;35.91
54870;BME280;40756;-37.950;145.008;2022-10-17T01:45:57;102109.96;;;17.17;35.55
54870;BME280;40756;-37.950;145.008;2022-10-17T01:48:35;102102.25;;;17.18;34.71
54870;BME280;40756;-37.950;145.008;2022-10-17T01:51:10;102102.87;;;17.12;34.07
54870;BME280;40756;-37.950;145.008;2022-10-17T01:53:46;102090.49;;;17.50;35.35
54870;BME280;40756;-37.950;145.008;2022-10-17T01:56:19;102091.78;;;16.88;34.93
54870;BME280;40756;-37.950;145.008;2022-10-17T01:58:51;102089.33;;;16.85;35.49
54870;BME280;40756;-37.950;145.008;2022-10-17T02:01:23;102090.21;;;16.52;35.79
54870;BME280;40756;-37.950;145.008;2022-10-17T02:03:54;102083.87;;;15.93;36.23
54870;BME280;40756;-37.950;145.008;2022-10-17T02:06:26;102084.97;;;16.44;35.91
54870;BME280;40756;-37.950;145.008;2022-10-17T02:08:55;102084.20;;;17.09;35.42
54870;BME280;40756;-37.950;145.008;2022-10-17T02:11:26;102086.36;;;16.56;34.39
54870;BME280;40756;-37.950;145.008;2022-10-17T02:14:17;102080.17;;;17.58;33.41
54870;BME280;40756;-37.950;145.008;2022-10-17T02:16:54;102078.90;;;16.88;33.92
54870;BME280;40756;-37.950;145.008;2022-10-17T02:19:39;102076.25;;;17.42;32.87
54870;BME280;40756;-37.950;145.008;2022-10-17T02:22:20;102070.99;;;17.28;33.77
54870;BME280;40756;-37.950;145.008;2022-10-17T02:25:01;102068.87;;;17.93;33.88
54870;BME280;40756;-37.950;145.008;2022-10-17T02:27:38;102062.95;;;18.19;34.71
54870;BME280;40756;-37.950;145.008;2022-10-17T02:30:14;102065.67;;;18.45;32.80
54870;BME280;40756;-37.950;145.008;2022-10-17T02:32:53;102064.29;;;18.23;32.94
54870;BME280;40756;-37.950;145.008;2022-10-17T02:35:26;102068.25;;;17.37;33.92
54870;BME280;40756;-37.950;145.008;2022-10-17T02:37:58;102068.08;;;18.39;33.03
54870;BME280;40756;-37.950;145.008;2022-10-17T02:40:30;102067.18;;;17.57;32.99
54870;BME280;40756;-37.950;145.008;2022-10-17T02:43:00;102064.15;;;18.22;32.70
54870;BME280;40756;-37.950;145.008;2022-10-17T02:45:30;102061.56;;;18.26;32.24
54870;BME280;40756;-37.950;145.008;2022-10-17T02:48:04;102061.81;;;18.02;32.84
54870;BME280;40756;-37.950;145.008;2022-10-17T02:50:45;102063.01;;;18.43;32.66
54870;BME280;40756;-37.950;145.008;2022-10-17T02:53:27;102067.91;;;17.99;33.25
54870;BME280;40756;-37.950;145.008;2022-10-17T02:56:02;102069.56;;;18.23;32.75
54870;BME280;40756;-37.950;145.008;2022-10-17T02:58:33;102074.71;;;18.11;32.33
54870;BME280;40756;-37.950;145.008;2022-10-17T03:01:05;102074.10;;;18.13;33.12
54870;BME280;40756;-37.950;145.008;2022-10-17T03:03:35;102074.52;;;17.50;33.32
54870;BME280;40756;-37.950;145.008;2022-10-17T03:06:04;102075.25;;;17.70;34.48
54870;BME280;40756;-37.950;145.008;2022-10-17T03:08:34;102075.37;;;17.76;34.14
54870;BME280;40756;-37.950;145.008;2022-10-17T03:11:03;102073.42;;;18.34;34.02
54870;BME280;40756;-37.950;145.008;2022-10-17T03:13:33;102066.29;;;18.87;32.94
54870;BME280;40756;-37.950;145.008;2022-10-17T03:16:02;102065.78;;;19.15;32.63
54870;BME280;40756;-37.950;145.008;2022-10-17T03:18:32;102063.01;;;18.67;32.82
54870;BME280;40756;-37.950;145.008;2022-10-17T03:21:01;102055.53;;;18.60;32.54
54870;BME280;40756;-37.950;145.008;2022-10-17T03:23:31;102048.58;;;19.26;32.79
54870;BME280;40756;-37.950;145.008;2022-10-17T03:26:04;102050.73;;;18.75;32.71
54870;BME280;40756;-37.950;145.008;2022-10-17T03:28:34;102050.88;;;19.01;32.81
54870;BME280;40756;-37.950;145.008;2022-10-17T03:31:08;102048.09;;;19.31;31.81
54870;BME280;40756;-37.950;145.008;2022-10-17T03:33:37;102041.85;;;19.71;31.80
54870;BME280;40756;-37.950;145.008;2022-10-17T03:36:08;102041.13;;;18.85;30.93
54870;BME280;40756;-37.950;145.008;2022-10-17T03:38:38;102038.59;;;18.91;32.33
54870;BME280;40756;-37.950;145.008;2022-10-17T03:41:07;102042.59;;;18.68;30.63
54870;BME280;40756;-37.950;145.008;2022-10-17T03:43:37;102040.15;;;18.47;31.55
54870;BME280;40756;-37.950;145.008;2022-10-17T03:46:07;102054.38;;;18.30;31.09
54870;BME280;40756;-37.950;145.008;2022-10-17T03:48:36;102045.41;;;18.92;32.07
54870;BME280;40756;-37.950;145.008;2022-10-17T03:51:07;102044.43;;;18.04;32.52
54870;BME280;40756;-37.950;145.008;2022-10-17T03:53:37;102038.13;;;18.78;32.07
54870;BME280;40756;-37.950;145.008;2022-10-17T03:56:12;102040.47;;;19.46;30.59
54870;BME280;40756;-37.950;145.008;2022-10-17T03:58:42;102037.58;;;18.48;31.42
54870;BME280;40756;-37.950;145.008;2022-10-17T04:01:13;102033.07;;;19.07;31.64
54870;BME280;40756;-37.950;145.008;2022-10-17T04:03:47;102027.70;;;19.53;31.75
54870;BME280;40756;-37.950;145.008;2022-10-17T04:06:17;102029.96;;;19.25;31.16
54870;BME280;40756;-37.950;145.008;2022-10-17T04:08:47;102020.56;;;19.25;30.59
54870;BME280;40756;-37.950;145.008;2022-10-17T04:11:19;102011.15;;;18.48;31.70
54870;BME280;40756;-37.950;145.008;2022-10-17T04:13:52;102003.45;;;18.98;31.07
54870;BME280;40756;-37.950;145.008;2022-10-17T04:16:24;102003.31;;;19.23;30.36
54870;BME280;40756;-37.950;145.008;2022-10-17T04:18:55;101995.98;;;18.81;30.93
54870;BME280;40756;-37.950;145.008;2022-10-17T04:21:26;101993.25;;;18.86;31.21
54870;BME280;40756;-37.950;145.008;2022-10-17T04:23:57;101988.86;;;19.26;31.21
54870;BME280;40756;-37.950;145.008;2022-10-17T04:26:28;101990.05;;;19.24;30.35
54870;BME280;40756;-37.950;145.008;2022-10-17T04:28:58;101981.34;;;19.79;30.50
54870;BME280;40756;-37.950;145.008;2022-10-17T04:31:27;101974.48;;;19.74;30.02
54870;BME280;40756;-37.950;145.008;2022-10-17T04:33:57;101980.95;;;19.05;30.50
54870;BME280;40756;-37.950;145.008;2022-10-17T04:36:26;101976.21;;;18.51;31.00
54870;BME280;40756;-37.950;145.008;2022-10-17T04:38:56;101969.42;;;18.74;31.69
54870;BME280;40756;-37.950;145.008;2022-10-17T04:41:25;101966.53;;;18.71;31.54
54870;BME280;40756;-37.950;145.008;2022-10-17T04:43:55;101961.94;;;19.14;31.50
54870;BME280;40756;-37.950;145.008;2022-10-17T04:46:24;101959.50;;;19.53;30.35
54870;BME280;40756;-37.950;145.008;2022-10-17T04:48:54;101964.53;;;19.22;30.54
54870;BME280;40756;-37.950;145.008;2022-10-17T04:51:24;101962.18;;;18.86;31.78
54870;BME280;40756;-37.950;145.008;2022-10-17T04:53:54;101962.73;;;18.82;31.47
54870;BME280;40756;-37.950;145.008;2022-10-17T04:56:25;101959.87;;;18.41;32.62
54870;BME280;40756;-37.950;145.008;2022-10-17T04:58:54;101959.53;;;18.57;31.80
54870;BME280;40756;-37.950;145.008;2022-10-17T05:01:24;101955.73;;;18.10;32.83
54870;BME280;40756;-37.950;145.008;2022-10-17T05:03:54;101955.79;;;16.87;34.52
54870;BME280;40756;-37.950;145.008;2022-10-17T05:06:25;101945.69;;;17.74;34.59
54870;BME280;40756;-37.950;145.008;2022-10-17T05:08:55;101938.98;;;18.56;33.84
54870;BME280;40756;-37.950;145.008;2022-10-17T05:11:27;101936.16;;;18.25;33.73
54870;BME280;40756;-37.950;145.008;2022-10-17T05:13:58;101936.80;;;18.20;32.99
54870;BME280;40756;-37.950;145.008;2022-10-17T05:16:29;101932.16;;;18.18;32.96
54870;BME280;40756;-37.950;145.008;2022-10-17T05:18:59;101927.67;;;18.35;34.49
54870;BME280;40756;-37.950;145.008;2022-10-17T05:21:30;101924.77;;;17.66;33.41
54870;BME280;40756;-37.950;145.008;2022-10-17T05:24:00;101917.92;;;18.10;33.19
54870;BME280;40756;-37.950;145.008;2022-10-17T05:26:30;101920.96;;;18.05;33.40
54870;BME280;40756;-37.950;145.008;2022-10-17T05:29:01;101918.18;;;18.24;32.93
54870;BME280;40756;-37.950;145.008;2022-10-17T05:31:32;101910.78;;;17.92;33.37
54870;BME280;40756;-37.950;145.008;2022-10-17T05:34:02;101904.47;;;18.27;33.51
54870;BME280;40756;-37.950;145.008;2022-10-17T05:36:32;101903.48;;;18.45;34.80
54870;BME280;40756;-37.950;145.008;2022-10-17T05:39:01;101905.55;;;18.04;33.32
54870;BME280;40756;-37.950;145.008;2022-10-17T05:41:31;101904.17;;;18.43;34.24
54870;BME280;40756;-37.950;145.008;2022-10-17T05:44:01;101897.55;;;17.94;34.98
54870;BME280;40756;-37.950;145.008;2022-10-17T05:46:30;101895.87;;;17.93;34.63
54870;BME280;40756;-37.950;145.008;2022-10-17T05:49:00;101888.25;;;18.04;34.62
54870;BME280;40756;-37.950;145.008;2022-10-17T05:51:30;101894.58;;;18.40;34.46
54870;BME280;40756;-37.950;145.008;2022-10-17T05:54:00;101889.65;;;18.30;34.12
54870;BME280;40756;-37.950;145.008;2022-10-17T05:56:30;101887.97;;;18.01;33.98
54870;BME280;40756;-37.950;145.008;2022-10-17T05:58:59;101878.34;;;18.48;34.07
54870;BME280;40756;-37.950;145.008;2022-10-17T06:01:29;101874.89;;;18.37;33.64
54870;BME280;40756;-37.950;145.008;2022-10-17T06:03:59;101876.48;;;18.33;33.86
54870;BME280;40756;-37.950;145.008;2022-10-17T06:06:28;101873.92;;;18.27;34.24
54870;BME280;40756;-37.950;145.008;2022-10-17T06:08:58;101873.21;;;18.53;33.64
54870;BME280;40756;-37.950;145.008;2022-10-17T06:11:27;101871.37;;;18.65;33.17
54870;BME280;40756;-37.950;145.008;2022-10-17T06:13:57;101868.20;;;18.89;32.54
54870;BME280;40756;-37.950;145.008;2022-10-17T06:16:26;101865.80;;;18.16;33.63
54870;BME280;40756;-37.950;145.008;2022-10-17T06:18:56;101865.38;;;18.02;33.38
54870;BME280;40756;-37.950;145.008;2022-10-17T06:21:26;101860.56;;;18.18;34.27
54870;BME280;40756;-37.950;145.008;2022-10-17T06:23:56;101856.07;;;18.28;33.83
54870;BME280;40756;-37.950;145.008;2022-10-17T06:26:25;101851.54;;;18.86;34.29
54870;BME280;40756;-37.950;145.008;2022-10-17T06:28:56;101848.81;;;18.99;33.41
54870;BME280;40756;-37.950;145.008;2022-10-17T06:31:26;101854.89;;;18.20;33.51
54870;BME280;40756;-37.950;145.008;2022-10-17T06:33:56;101851.58;;;18.05;34.35
54870;BME280;40756;-37.950;145.008;2022-10-17T06:36:25;101844.93;;;18.51;34.36
54870;BME280;40756;-37.950;145.008;2022-10-17T06:38:55;101842.33;;;17.94;34.30
54870;BME280;40756;-37.950;145.008;2022-10-17T06:41:24;101835.47;;;18.47;34.30
54870;BME280;40756;-37.950;145.008;2022-10-17T06:43:54;101835.19;;;18.17;34.61
54870;BME280;40756;-37.950;145.008;2022-10-17T06:46:23;101840.07;;;18.56;34.65
54870;BME280;40756;-37.950;145.008;2022-10-17T06:48:53;101841.37;;;17.89;35.00
54870;BME280;40756;-37.950;145.008;2022-10-17T06:51:22;101840.76;;;17.65;35.39
54870;BME280;40756;-37.950;145.008;2022-10-17T06:53:52;101839.58;;;17.43;36.53
54870;BME280;40756;-37.950;145.008;2022-10-17T06:56:21;101842.06;;;17.56;36.21
54870;BME280;40756;-37.950;145.008;2022-10-17T06:58:51;101840.76;;;17.64;35.99
54870;BME280;40756;-37.950;145.008;2022-10-17T07:01:21;101840.91;;;18.18;35.89
54870;BME280;40756;-37.950;145.008;2022-10-17T07:03:50;101846.34;;;18.24;35.38
54870;BME280;40756;-37.950;145.008;2022-10-17T07:06:20;101843.69;;;17.69;35.35
54870;BME280;40756;-37.950;145.008;2022-10-17T07:08:49;101842.33;;;18.02;34.03
54870;BME280;40756;-37.950;145.008;2022-10-17T07:11:21;101842.70;;;17.94;34.69
54870;BME280;40756;-37.950;145.008;2022-10-17T07:13:50;101849.37;;;17.36;33.73
54870;BME280;40756;-37.950;145.008;2022-10-17T07:16:20;101851.11;;;17.22;33.88
54870;BME280;40756;-37.950;145.008;2022-10-17T07:18:50;101854.87;;;17.40;34.16
54870;BME280;40756;-37.950;145.008;2022-10-17T07:21:19;101858.96;;;17.39;34.35
54870;BME280;40756;-37.950;145.008;2022-10-17T07:23:48;101861.47;;;17.25;34.93
54870;BME280;40756;-37.950;145.008;2022-10-17T07:26:19;101861.83;;;17.62;34.48
54870;BME280;40756;-37.950;145.008;2022-10-17T07:28:53;101863.32;;;17.71;34.23
54870;BME280;40756;-37.950;145.008;2022-10-17T07:31:24;101866.71;;;17.08;34.91
54870;BME280;40756;-37.950;145.008;2022-10-17T07:33:54;101876.67;;;17.17;35.47
54870;BME280;40756;-37.950;145.008;2022-10-17T07:36:23;101877.57;;;17.41;34.63
54870;BME280;40756;-37.950;145.008;2022-10-17T07:38:53;101875.10;;;17.05;34.32
54870;BME280;40756;-37.950;145.008;2022-10-17T07:41:23;101880.34;;;16.91;35.12
54870;BME280;40756;-37.950;145.008;2022-10-17T07:43:54;101876.04;;;16.94;34.99
54870;BME280;40756;-37.950;145.008;2022-10-17T07:46:23;101877.70;;;16.43;35.84
54870;BME280;40756;-37.950;145.008;2022-10-17T07:48:53;101879.69;;;16.80;35.32
54870;BME280;40756;-37.950;145.008;2022-10-17T07:51:22;101887.09;;;17.10;34.96
54870;BME280;40756;-37.950;145.008;2022-10-17T07:53:52;101889.48;;;16.45;35.65
54870;BME280;40756;-37.950;145.008;2022-10-17T07:56:22;101892.32;;;16.62;35.95
54870;BME280;40756;-37.950;145.008;2022-10-17T07:58:52;101898.65;;;16.58;35.66
54870;BME280;40756;-37.950;145.008;2022-10-17T08:01:21;101897.97;;;16.36;36.04
54870;BME280;40756;-37.950;145.008;2022-10-17T08:03:51;101894.25;;;15.77;36.25
54870;BME280;40756;-37.950;145.008;2022-10-17T08:06:20;101892.90;;;15.77;36.65
54870;BME280;40756;-37.950;145.008;2022-10-17T08:08:50;101890.23;;;16.49;36.91
54870;BME280;40756;-37.950;145.008;2022-10-17T08:11:19;101885.02;;;16.17;36.61
54870;BME280;40756;-37.950;145.008;2022-10-17T08:13:49;101883.14;;;16.13;38.68
54870;BME280;40756;-37.950;145.008;2022-10-17T08:16:19;101890.13;;;16.19;38.45
54870;BME280;40756;-37.950;145.008;2022-10-17T08:18:49;101894.97;;;16.21;36.26
54870;BME280;40756;-37.950;145.008;2022-10-17T08:21:18;101899.21;;;15.76;36.84
54870;BME280;40756;-37.950;145.008;2022-10-17T08:23:48;101897.78;;;16.11;36.90
54870;BME280;40756;-37.950;145.008;2022-10-17T08:26:17;101901.26;;;16.15;37.24
54870;BME280;40756;-37.950;145.008;2022-10-17T08:28:47;101900.17;;;15.80;37.61
54870;BME280;40756;-37.950;145.008;2022-10-17T08:31:18;101900.87;;;15.67;38.10
54870;BME280;40756;-37.950;145.008;2022-10-17T08:33:50;101906.33;;;15.08;38.46
54870;BME280;40756;-37.950;145.008;2022-10-17T08:36:21;101913.02;;;15.40;38.77
54870;BME280;40756;-37.950;145.008;2022-10-17T08:38:51;101912.01;;;15.06;38.81
54870;BME280;40756;-37.950;145.008;2022-10-17T08:41:39;101905.97;;;15.11;39.03
54870;BME280;40756;-37.950;145.008;2022-10-17T08:44:34;101901.03;;;15.13;39.08
54870;BME280;40756;-37.950;145.008;2022-10-17T08:47:11;101906.01;;;14.97;39.28
54870;BME280;40756;-37.950;145.008;2022-10-17T08:49:46;101915.77;;;15.11;39.26
54870;BME280;40756;-37.950;145.008;2022-10-17T08:52:24;101923.95;;;15.13;39.07
54870;BME280;40756;-37.950;145.008;2022-10-17T08:54:58;101928.24;;;15.05;39.07
54870;BME280;40756;-37.950;145.008;2022-10-17T08:57:28;101927.06;;;14.97;38.50
54870;BME280;40756;-37.950;145.008;2022-10-17T08:59:58;101929.79;;;14.76;38.75
54870;BME280;40756;-37.950;145.008;2022-10-17T09:02:38;101940.50;;;14.78;39.18
54870;BME280;40756;-37.950;145.008;2022-10-17T09:05:35;101955.19;;;15.01;38.78
54870;BME280;40756;-37.950;145.008;2022-10-17T09:08:19;101969.04;;;14.42;38.51
54870;BME280;40756;-37.950;145.008;2022-10-17T09:10:57;101972.90;;;14.63;39.26
54870;BME280;40756;-37.950;145.008;2022-10-17T09:13:41;101971.49;;;14.84;38.90
54870;BME280;40756;-37.950;145.008;2022-10-17T09:16:24;101968.08;;;14.59;38.86
54870;BME280;40756;-37.950;145.008;2022-10-17T09:19:02;101970.55;;;14.62;39.23
54870;BME280;40756;-37.950;145.008;2022-10-17T09:21:42;101971.28;;;14.24;39.36
54870;BME280;40756;-37.950;145.008;2022-10-17T09:24:37;101964.96;;;14.59;39.82
54870;BME280;40756;-37.950;145.008;2022-10-17T09:27:18;101959.40;;;14.29;40.10
54870;BME280;40756;-37.950;145.008;2022-10-17T09:29:57;101959.39;;;14.25;40.19
54870;BME280;40756;-37.950;145.008;2022-10-17T09:32:31;101966.01;;;14.34;40.77
54870;BME280;40756;-37.950;145.008;2022-10-17T09:35:02;101966.68;;;14.17;41.10
54870;BME280;40756;-37.950;145.008;2022-10-17T09:37:33;101967.95;;;14.24;41.06
54870;BME280;40756;-37.950;145.008;2022-10-17T09:40:03;101979.21;;;14.29;41.29
54870;BME280;40756;-37.950;145.008;2022-10-17T09:42:35;101983.51;;;14.38;41.53
54870;BME280;40756;-37.950;145.008;2022-10-17T09:45:18;101981.91;;;14.07;41.62
54870;BME280;40756;-37.950;145.008;2022-10-17T09:47:54;101975.51;;;14.37;41.68
54870;BME280;40756;-37.950;145.008;2022-10-17T09:50:27;101965.86;;;14.11;42.02
54870;BME280;40756;-37.950;145.008;2022-10-17T09:53:02;101960.39;;;13.55;42.47
54870;BME280;40756;-37.950;145.008;2022-10-17T09:55:41;101962.60;;;13.89;42.13
54870;BME280;40756;-37.950;145.008;2022-10-17T09:58:11;101960.43;;;14.08;42.04
54870;BME280;40756;-37.950;145.008;2022-10-17T10:00:43;101957.28;;;13.87;42.21
54870;BME280;40756;-37.950;145.008;2022-10-17T10:03:17;101957.80;;;13.48;42.29
54870;BME280;40756;-37.950;145.008;2022-10-17T10:06:01;101965.02;;;13.76;42.12
54870;BME280;40756;-37.950;145.008;2022-10-17T10:08:33;101965.28;;;13.59;42.20
54870;BME280;40756;-37.950;145.008;2022-10-17T10:11:06;101963.23;;;13.78;41.67
54870;BME280;40756;-37.950;145.008;2022-10-17T10:13:36;101962.50;;;13.58;42.00
54870;BME280;40756;-37.950;145.008;2022-10-17T10:16:21;101967.67;;;13.58;42.11
54870;BME280;40756;-37.950;145.008;2022-10-17T10:18:56;101973.02;;;13.35;42.52
54870;BME280;40756;-37.950;145.008;2022-10-17T10:21:26;101973.15;;;13.60;42.41
54870;BME280;40756;-37.950;145.008;2022-10-17T10:24:10;101972.44;;;13.67;42.32
54870;BME280;40756;-37.950;145.008;2022-10-17T10:27:30;101973.23;;;13.60;42.19
54870;BME280;40756;-37.950;145.008;2022-10-17T10:30:00;101968.59;;;13.69;42.34
54870;BME280;40756;-37.950;145.008;2022-10-17T10:32:32;101971.68;;;13.69;42.55
54870;BME280;40756;-37.950;145.008;2022-10-17T10:35:17;101974.61;;;13.51;43.04
54870;BME280;40756;-37.950;145.008;2022-10-17T10:37:49;101974.21;;;13.49;42.69
54870;BME280;40756;-37.950;145.008;2022-10-17T10:40:22;101976.90;;;13.44;42.76
54870;BME280;40756;-37.950;145.008;2022-10-17T10:42:55;101978.58;;;13.42;43.87
54870;BME280;40756;-37.950;145.008;2022-10-17T10:45:42;101978.84;;;13.74;42.85
54870;BME280;40756;-37.950;145.008;2022-10-17T10:48:20;101980.29;;;13.51;42.46
54870;BME280;40756;-37.950;145.008;2022-10-17T10:50:52;101985.31;;;13.37;42.89
54870;BME280;40756;-37.950;145.008;2022-10-17T10:53:33;101981.04;;;13.63;42.78
54870;BME280;40756;-37.950;145.008;2022-10-17T10:56:10;101973.38;;;13.38;42.82
54870;BME280;40756;-37.950;145.008;2022-10-17T10:58:51;101972.73;;;13.11;42.73
54870;BME280;40756;-37.950;145.008;2022-10-17T11:01:40;101970.25;;;13.33;43.00
54870;BME280;40756;-37.950;145.008;2022-10-17T11:04:26;101968.02;;;13.36;42.75
54870;BME280;40756;-37.950;145.008;2022-10-17T11:07:01;101967.72;;;13.36;43.06
54870;BME280;40756;-37.950;145.008;2022-10-17T11:09:39;101966.48;;;13.18;43.19
54870;BME280;40756;-37.950;145.008;2022-10-17T11:12:16;101965.62;;;13.01;43.37
54870;BME280;40756;-37.950;145.008;2022-10-17T11:15:00;101963.63;;;13.37;43.53
54870;BME280;40756;-37.950;145.008;2022-10-17T11:17:37;101960.54;;;12.81;43.93
54870;BME280;40756;-37.950;145.008;2022-10-17T11:20:17;101960.38;;;12.98;43.85
54870;BME280;40756;-37.950;145.008;2022-10-17T11:22:51;101953.43;;;12.84;44.39
54870;BME280;40756;-37.950;145.008;2022-10-17T11:25:31;101948.50;;;12.81;44.49
54870;BME280;40756;-37.950;145.008;2022-10-17T11:28:01;101944.74;;;13.06;44.59
54870;BME280;40756;-37.950;145.008;2022-10-17T11:30:43;101943.66;;;12.97;44.33
54870;BME280;40756;-37.950;145.008;2022-10-17T11:33:22;101935.57;;;12.99;44.51
54870;BME280;40756;-37.950;145.008;2022-10-17T11:35:58;101930.84;;;12.93;44.74
54870;BME280;40756;-37.950;145.008;2022-10-17T11:38:44;101930.03;;;12.96;44.76
54870;BME280;40756;-37.950;145.008;2022-10-17T11:41:56;101929.71;;;12.93;44.82
54870;BME280;40756;-37.950;145.008;2022-10-17T11:44:38;101925.98;;;12.91;44.87
54870;BME280;40756;-37.950;145.008;2022-10-17T11:47:25;101924.28;;;12.71;45.20
54870;BME280;40756;-37.950;145.008;2022-10-17T11:50:02;101925.79;;;12.59;45.74
54870;BME280;40756;-37.950;145.008;2022-10-17T11:52:37;101924.04;;;13.11;45.62
54870;BME280;40756;-37.950;145.008;2022-10-17T11:55:14;101922.49;;;12.90;45.57
54870;BME280;40756;-37.950;145.008;2022-10-17T11:58:00;101929.81;;;12.50;46.24
54870;BME280;40756;-37.950;145.008;2022-10-17T12:00:49;101927.72;;;12.39;46.11
54870;BME280;40756;-37.950;145.008;2022-10-17T12:04:03;101930.98;;;12.42;46.15
54870;BME280;40756;-37.950;145.008;2022-10-17T12:06:46;101925.58;;;12.46;46.17
54870;BME280;40756;-37.950;145.008;2022-10-17T12:09:23;101919.20;;;12.77;46.07
54870;BME280;40756;-37.950;145.008;2022-10-17T12:11:56;101916.54;;;12.78;46.34
54870;BME280;40756;-37.950;145.008;2022-10-17T12:14:49;101909.46;;;12.79;46.44
54870;BME280;40756;-37.950;145.008;2022-10-17T12:17:34;101906.88;;;12.36;46.39
54870;BME280;40756;-37.950;145.008;2022-10-17T12:20:37;101905.10;;;12.28;46.65
54870;BME280;40756;-37.950;145.008;2022-10-17T12:23:26;101909.32;;;12.73;46.69
54870;BME280;40756;-37.950;145.008;2022-10-17T12:26:02;101907.15;;;12.46;46.85
54870;BME280;40756;-37.950;145.008;2022-10-17T12:28:39;101906.58;;;12.40;46.98
54870;BME280;40756;-37.950;145.008;2022-10-17T12:31:21;101904.26;;;12.29;47.23
54870;BME280;40756;-37.950;145.008;2022-10-17T12:33:53;101901.51;;;12.56;47.05
54870;BME280;40756;-37.950;145.008;2022-10-17T12:36:40;101896.99;;;12.07;47.01
54870;BME280;40756;-37.950;145.008;2022-10-17T12:39:42;101893.09;;;12.40;47.12
54870;BME280;40756;-37.950;145.008;2022-10-17T12:43:48;101891.50;;;12.52;47.03
54870;BME280;40756;-37.950;145.008;2022-10-17T12:46:44;101885.76;;;12.37;46.96
54870;BME280;40756;-37.950;145.008;2022-10-17T12:49:46;101884.96;;;12.19;47.22
54870;BME280;40756;-37.950;145.008;2022-10-17T12:52:19;101879.52;;;11.76;47.55
54870;BME280;40756;-37.950;145.008;2022-10-17T12:55:09;101876.75;;;12.24;47.54
54870;BME280;40756;-37.950;145.008;2022-10-17T12:57:52;101870.70;;;12.28;47.47